createdAt,value
2022-07-26T00:01:21.659Z,1.38
2022-07-26T00:03:49.776Z,1.75
2022-07-26T00:06:18.845Z,1.65
2022-07-26T00:08:46.235Z,1.23
2022-07-26T00:11:12.823Z,1.90
2022-07-26T00:13:39.937Z,1.67
2022-07-26T00:16:06.815Z,1.45
2022-07-26T00:18:33.693Z,1.65
2022-07-26T00:21:00.257Z,1.70
2022-07-26T00:23:27.522Z,1.60
2022-07-26T00:25:54.203Z,1.67
2022-07-26T00:28:20.794Z,1.15
2022-07-26T00:30:47.539Z,1.48
2022-07-26T00:33:14.092Z,1.40
2022-07-26T00:35:40.637Z,2.45
2022-07-26T00:38:07.287Z,1.55
2022-07-26T00:40:34.868Z,1.43
2022-07-26T00:43:01.378Z,2.05
2022-07-26T00:45:27.923Z,1.50
2022-07-26T00:47:54.562Z,1.50
2022-07-26T00:50:21.309Z,1.67
2022-07-26T00:52:49.090Z,1.35
2022-07-26T00:55:16.461Z,1.83
2022-07-26T00:57:43.695Z,1.87
2022-07-26T01:00:17.579Z,1.10
2022-07-26T01:02:44.787Z,1.67
2022-07-26T01:05:11.821Z,2.00
2022-07-26T01:07:38.927Z,2.03
2022-07-26T01:10:10.957Z,2.03
2022-07-26T01:12:37.894Z,1.75
2022-07-26T01:15:05.283Z,1.95
2022-07-26T01:17:31.906Z,1.90
2022-07-26T01:20:01.547Z,2.25
2022-07-26T01:22:28.086Z,2.38
2022-07-26T01:24:54.593Z,2.90
2022-07-26T01:27:21.253Z,1.90
2022-07-26T01:29:49.983Z,2.25
2022-07-26T01:32:16.517Z,1.73
2022-07-26T01:34:43.013Z,1.88
2022-07-26T01:37:09.638Z,2.22
2022-07-26T01:39:36.203Z,1.55
2022-07-26T01:42:03.008Z,1.83
2022-07-26T01:44:29.622Z,1.95
2022-07-26T01:46:56.172Z,1.63
2022-07-26T01:49:22.794Z,3.47
2022-07-26T01:51:49.393Z,1.98
2022-07-26T01:54:15.922Z,1.75
2022-07-26T01:56:49.176Z,2.22
2022-07-26T01:59:15.901Z,2.40
2022-07-26T02:01:42.489Z,1.92
2022-07-26T02:04:29.044Z,2.90
2022-07-26T02:06:55.552Z,1.95
2022-07-26T02:09:22.201Z,2.40
2022-07-26T02:11:49.255Z,1.98
2022-07-26T02:14:25.310Z,2.38
2022-07-26T02:16:59.638Z,2.10
2022-07-26T02:19:30.132Z,2.38
2022-07-26T02:21:57.212Z,1.88
2022-07-26T02:24:24.366Z,2.42
2022-07-26T02:26:50.990Z,2.17
2022-07-26T02:29:17.532Z,2.08
2022-07-26T02:31:48.423Z,1.90
2022-07-26T02:34:16.018Z,3.15
2022-07-26T02:36:42.590Z,1.88
2022-07-26T02:39:09.186Z,2.97
2022-07-26T02:41:35.822Z,2.40
2022-07-26T02:44:02.592Z,1.98
2022-07-26T02:46:29.381Z,2.20
2022-07-26T02:48:56.105Z,2.45
2022-07-26T02:51:22.893Z,2.20
2022-07-26T02:53:49.426Z,2.58
2022-07-26T02:56:15.976Z,2.30
2022-07-26T02:58:42.519Z,2.13
2022-07-26T03:01:09.167Z,2.45
2022-07-26T03:03:36.427Z,2.70
2022-07-26T03:06:03.405Z,2.60
2022-07-26T03:08:29.890Z,2.30
2022-07-26T03:10:56.426Z,2.15
2022-07-26T03:13:22.961Z,2.10
2022-07-26T03:15:49.500Z,3.00
2022-07-26T03:18:16.023Z,2.55
2022-07-26T03:20:42.609Z,3.20
2022-07-26T03:23:09.146Z,2.47
2022-07-26T03:25:37.548Z,2.53
2022-07-26T03:28:04.607Z,2.25
2022-07-26T03:30:31.095Z,2.05
2022-07-26T03:32:57.619Z,2.85
2022-07-26T03:35:24.200Z,2.72
2022-07-26T03:37:50.772Z,2.78
2022-07-26T03:40:18.219Z,2.72
2022-07-26T03:42:46.129Z,2.05
2022-07-26T03:47:39.701Z,3.53
2022-07-26T03:50:07.219Z,2.40
2022-07-26T03:52:33.743Z,2.40
2022-07-26T03:55:00.257Z,3.13
2022-07-26T03:57:28.504Z,2.05
2022-07-26T03:59:55.868Z,1.85
2022-07-26T04:02:22.453Z,3.00
2022-07-26T04:04:48.968Z,2.88
2022-07-26T04:07:15.993Z,2.42
2022-07-26T04:09:42.804Z,2.78
2022-07-26T04:12:09.427Z,2.72
2022-07-26T04:14:35.958Z,2.20
2022-07-26T04:17:02.461Z,2.10
2022-07-26T04:19:28.999Z,2.60
2022-07-26T04:21:55.565Z,2.72
2022-07-26T04:24:25.212Z,2.30
2022-07-26T04:26:52.576Z,2.97
2022-07-26T04:29:19.100Z,2.80
2022-07-26T04:31:45.629Z,2.60
2022-07-26T04:34:12.159Z,3.42
2022-07-26T04:36:39.049Z,2.80
2022-07-26T04:39:05.560Z,3.00
2022-07-26T04:41:32.114Z,2.58
2022-07-26T04:43:58.637Z,3.38
2022-07-26T04:46:25.301Z,3.38
2022-07-26T04:48:51.967Z,2.67
2022-07-26T04:51:18.488Z,2.80
2022-07-26T04:53:44.991Z,2.38
2022-07-26T04:56:11.507Z,2.80
2022-07-26T04:58:38.015Z,2.90
2022-07-26T05:01:11.868Z,2.75
2022-07-26T05:03:39.204Z,3.40
2022-07-26T05:06:06.014Z,2.63
2022-07-26T05:08:32.600Z,3.30
2022-07-26T05:10:59.146Z,2.92
2022-07-26T05:13:29.952Z,3.20
2022-07-26T05:15:57.840Z,3.10
2022-07-26T05:18:24.407Z,2.80
2022-07-26T05:20:51.536Z,2.70
2022-07-26T05:23:19.927Z,2.95
2022-07-26T05:25:46.804Z,3.17
2022-07-26T05:28:13.334Z,3.42
2022-07-26T05:30:39.837Z,3.67
2022-07-26T05:33:06.392Z,4.15
2022-07-26T05:35:32.915Z,2.88
2022-07-26T05:37:59.492Z,3.70
2022-07-26T05:40:26.054Z,4.00
2022-07-26T05:42:52.632Z,3.28
2022-07-26T05:45:19.184Z,4.07
2022-07-26T05:47:45.687Z,4.30
2022-07-26T05:50:12.171Z,3.95
2022-07-26T05:52:38.676Z,3.30
2022-07-26T05:55:05.731Z,3.20
2022-07-26T05:57:32.228Z,3.38
2022-07-26T05:59:58.761Z,3.15
2022-07-26T06:02:25.428Z,3.55
2022-07-26T06:04:52.100Z,3.75
2022-07-26T06:07:18.824Z,3.40
2022-07-26T06:09:45.370Z,4.13
2022-07-26T06:12:11.938Z,4.68
2022-07-26T06:14:38.477Z,3.30
2022-07-26T06:17:05.119Z,3.80
2022-07-26T06:19:31.872Z,3.45
2022-07-26T06:21:58.459Z,3.78
2022-07-26T06:24:25.030Z,3.53
2022-07-26T06:26:56.784Z,4.32
2022-07-26T06:29:27.038Z,4.10
2022-07-26T06:31:58.977Z,4.47
2022-07-26T06:34:25.555Z,4.05
2022-07-26T06:36:52.009Z,4.10
2022-07-26T06:39:18.600Z,4.50
2022-07-26T06:41:45.121Z,4.57
2022-07-26T06:44:12.015Z,4.28
2022-07-26T06:46:38.644Z,3.45
2022-07-26T06:49:05.774Z,5.18
2022-07-26T06:51:33.633Z,4.35
2022-07-26T06:54:00.929Z,5.72
2022-07-26T06:56:27.659Z,4.93
2022-07-26T06:58:55.294Z,5.22
2022-07-26T07:01:51.382Z,5.53
2022-07-26T07:04:09.131Z,6.00
2022-07-26T07:06:35.832Z,5.97
2022-07-26T07:09:02.339Z,5.57
2022-07-26T07:11:28.817Z,5.07
2022-07-26T07:13:55.338Z,4.38
2022-07-26T07:16:21.909Z,5.15
2022-07-26T07:18:49.186Z,4.90
2022-07-26T07:21:15.668Z,4.30
2022-07-26T07:23:42.160Z,3.53
2022-07-26T07:26:08.642Z,5.43
2022-07-26T07:28:38.415Z,4.22
2022-07-26T07:31:05.847Z,3.75
2022-07-26T07:33:36.654Z,4.20
2022-07-26T07:36:10.467Z,4.10
2022-07-26T07:38:37.366Z,4.85
2022-07-26T07:41:04.027Z,3.58
2022-07-26T07:43:30.554Z,3.65
2022-07-26T07:45:57.110Z,3.60
2022-07-26T07:48:23.598Z,3.90
2022-07-26T07:50:50.062Z,3.60
2022-07-26T07:53:16.582Z,4.53
2022-07-26T07:55:43.897Z,4.45
2022-07-26T07:58:12.505Z,3.58
2022-07-26T08:00:40.829Z,3.13
2022-07-26T08:03:07.431Z,2.90
2022-07-26T08:05:35.020Z,3.27
2022-07-26T08:08:08.139Z,2.95
2022-07-26T08:13:05.265Z,2.80
2022-07-26T08:15:33.193Z,3.25
2022-07-26T08:17:59.977Z,2.90
2022-07-26T08:20:26.681Z,3.00
2022-07-26T08:22:53.452Z,3.22
2022-07-26T08:25:20.232Z,3.97
2022-07-26T08:28:02.527Z,3.40
2022-07-26T08:30:29.817Z,3.33
2022-07-26T08:32:56.349Z,3.00
2022-07-26T08:35:22.908Z,3.20
2022-07-26T08:37:49.443Z,3.13
2022-07-26T08:40:16.057Z,2.90
2022-07-26T08:42:52.794Z,2.92
2022-07-26T08:45:23.586Z,2.97
2022-07-26T08:48:14.963Z,3.08
2022-07-26T08:50:37.317Z,3.35
2022-07-26T08:53:07.002Z,2.15
2022-07-26T08:55:50.571Z,1.80
2022-07-26T08:58:20.145Z,2.05
2022-07-26T09:00:46.826Z,1.73
2022-07-26T09:03:26.287Z,2.28
2022-07-26T09:05:53.680Z,2.00
2022-07-26T09:08:25.945Z,2.58
2022-07-26T09:10:52.691Z,1.77
2022-07-26T09:13:20.303Z,1.73
2022-07-26T09:15:46.844Z,2.45
2022-07-26T09:18:27.036Z,2.40
2022-07-26T09:20:54.754Z,2.40
2022-07-26T09:23:21.487Z,2.78
2022-07-26T09:25:48.092Z,2.10
2022-07-26T09:28:29.646Z,3.15
2022-07-26T09:30:58.472Z,2.53
2022-07-26T09:33:25.118Z,2.30
2022-07-26T09:38:47.159Z,2.35
2022-07-26T09:41:24.797Z,2.47
2022-07-26T09:43:53.888Z,2.38
2022-07-26T09:46:22.528Z,2.60
2022-07-26T09:51:36.521Z,2.50
2022-07-26T09:54:03.501Z,3.05
2022-07-26T09:56:50.600Z,2.67
2022-07-26T09:59:19.582Z,3.63
2022-07-26T10:01:47.039Z,2.50
2022-07-26T10:04:14.303Z,3.40
2022-07-26T10:06:41.686Z,3.22
2022-07-26T10:09:08.999Z,3.20
2022-07-26T10:11:50.018Z,3.07
2022-07-26T10:14:42.216Z,3.28
2022-07-26T10:17:31.030Z,3.40
2022-07-26T10:19:59.350Z,3.20
2022-07-26T10:22:35.196Z,3.50
2022-07-26T10:25:16.990Z,3.10
2022-07-26T10:27:46.021Z,3.67
2022-07-26T10:30:22.549Z,3.70
2022-07-26T10:32:52.341Z,2.33
2022-07-26T10:35:41.296Z,2.00
2022-07-26T10:38:13.988Z,1.50
2022-07-26T10:41:01.234Z,1.50
2022-07-26T10:43:44.006Z,1.60
2022-07-26T10:46:16.984Z,1.17
2022-07-26T10:49:04.263Z,1.00
2022-07-26T10:51:33.666Z,1.38
2022-07-26T10:54:08.495Z,1.13
2022-07-26T10:56:35.564Z,1.40
2022-07-26T10:59:04.128Z,1.10
2022-07-26T11:01:38.127Z,1.52
2022-07-26T11:04:06.161Z,1.38
2022-07-26T11:06:33.138Z,1.23
2022-07-26T11:09:09.887Z,1.80
2022-07-26T11:11:36.466Z,1.20
2022-07-26T11:14:10.206Z,1.05
2022-07-26T11:16:42.820Z,1.02
2022-07-26T11:19:13.524Z,1.55
2022-07-26T11:21:41.317Z,1.10
2022-07-26T11:24:09.246Z,1.30
2022-07-26T11:26:43.698Z,1.23
2022-07-26T11:29:10.438Z,1.25
2022-07-26T11:31:50.691Z,1.20
2022-07-26T11:34:30.514Z,2.03
2022-07-26T11:36:58.622Z,1.45
2022-07-26T11:39:28.740Z,1.40
2022-07-26T11:42:09.028Z,1.60
2022-07-26T11:44:35.976Z,1.48
2022-07-26T11:47:16.930Z,1.45
2022-07-26T11:49:59.871Z,1.13
2022-07-26T11:52:34.040Z,1.10
2022-07-26T11:55:00.614Z,2.05
2022-07-26T11:57:31.683Z,1.30
2022-07-26T11:59:59.679Z,1.35
2022-07-26T12:02:26.766Z,1.25
2022-07-26T12:05:22.631Z,1.23
2022-07-26T12:07:54.230Z,1.13
2022-07-26T12:10:20.952Z,1.38
2022-07-26T12:12:47.496Z,1.52
2022-07-26T12:15:15.667Z,1.52
2022-07-26T12:20:27.967Z,1.50
2022-07-26T12:23:04.963Z,1.20
2022-07-26T12:25:32.011Z,1.17
2022-07-26T12:27:59.167Z,1.23
2022-07-26T12:30:30.671Z,0.90
2022-07-26T12:33:02.260Z,1.30
2022-07-26T12:35:32.342Z,1.00
2022-07-26T12:37:58.996Z,1.02
2022-07-26T12:40:27.432Z,1.02
2022-07-26T12:43:01.294Z,1.00
2022-07-26T12:45:32.271Z,1.08
2022-07-26T12:48:01.441Z,1.17
2022-07-26T12:50:30.629Z,1.00
2022-07-26T12:53:07.433Z,1.20
2022-07-26T12:55:35.455Z,1.23
2022-07-26T12:58:02.236Z,1.33
2022-07-26T13:00:30.023Z,1.38
2022-07-26T13:02:57.188Z,1.00
2022-07-26T13:05:24.089Z,1.20
2022-07-26T13:07:54.248Z,1.23
2022-07-26T13:10:36.682Z,1.05
2022-07-26T13:13:04.212Z,1.00
2022-07-26T13:15:37.268Z,1.40
2022-07-26T13:18:08.776Z,1.30
2022-07-26T13:20:38.694Z,1.52
2022-07-26T13:23:06.498Z,1.58
2022-07-26T13:25:38.358Z,1.60
2022-07-26T13:28:07.435Z,1.55
2022-07-26T13:30:34.095Z,1.30
2022-07-26T13:33:00.831Z,1.20
2022-07-26T13:35:28.175Z,1.23
2022-07-26T13:37:55.026Z,1.55
2022-07-26T13:40:21.653Z,1.23
2022-07-26T13:42:50.081Z,1.65
2022-07-26T13:45:16.832Z,1.23
2022-07-26T13:47:43.769Z,1.50
2022-07-26T13:50:10.687Z,1.33
2022-07-26T13:52:37.208Z,1.30
2022-07-26T13:55:04.013Z,1.48
2022-07-26T13:57:48.084Z,2.25
2022-07-26T14:00:20.276Z,1.85
2022-07-26T14:02:46.996Z,1.58
2022-07-26T14:05:13.721Z,1.27
2022-07-26T14:07:42.530Z,2.00
2022-07-26T14:10:09.660Z,1.70
2022-07-26T14:12:38.142Z,2.00
2022-07-26T14:15:10.887Z,2.22
2022-07-26T14:17:39.615Z,2.28
2022-07-26T14:20:07.174Z,1.70
2022-07-26T14:22:33.698Z,2.13
2022-07-26T14:25:00.568Z,1.45
2022-07-26T14:27:27.420Z,1.63
2022-07-26T14:29:53.954Z,1.83
2022-07-26T14:32:22.277Z,1.50
2022-07-26T14:34:49.562Z,1.20
2022-07-26T14:37:42.454Z,1.73
2022-07-26T14:40:05.658Z,1.58
2022-07-26T14:42:32.295Z,1.20
2022-07-26T14:44:58.980Z,1.13
2022-07-26T14:47:25.610Z,1.55
2022-07-26T14:49:52.428Z,1.60
2022-07-26T14:52:19.064Z,1.13
2022-07-26T14:54:45.608Z,1.13
2022-07-26T14:57:12.140Z,1.75
2022-07-26T14:59:38.808Z,1.40
2022-07-26T15:02:06.163Z,1.65
2022-07-26T15:04:32.945Z,1.85
2022-07-26T15:06:59.832Z,2.08
2022-07-26T15:09:26.671Z,1.50
2022-07-26T15:11:53.472Z,1.60
2022-07-26T15:14:20.026Z,1.70
2022-07-26T15:16:46.822Z,1.70
2022-07-26T15:19:13.533Z,2.03
2022-07-26T15:21:40.260Z,1.70
2022-07-26T15:24:09.395Z,1.50
2022-07-26T15:26:36.292Z,1.50
2022-07-26T15:29:02.901Z,1.55
2022-07-26T15:31:37.038Z,1.85
2022-07-26T15:34:07.680Z,1.55
2022-07-26T15:36:34.400Z,1.42
2022-07-26T15:39:15.561Z,1.77
2022-07-26T15:41:43.776Z,1.85
2022-07-26T15:44:12.260Z,1.60
2022-07-26T15:46:40.044Z,1.35
2022-07-26T15:49:07.699Z,1.50
2022-07-26T15:51:34.556Z,1.83
2022-07-26T15:54:02.975Z,2.05
2022-07-26T15:56:29.571Z,1.52
2022-07-26T15:58:56.438Z,1.70
2022-07-26T16:01:23.292Z,2.20
2022-07-26T16:03:49.961Z,1.75
2022-07-26T16:06:16.672Z,1.90
2022-07-26T16:09:05.787Z,1.98
2022-07-26T16:11:30.592Z,1.77
2022-07-26T16:14:01.754Z,1.67
2022-07-26T16:16:29.889Z,1.85
2022-07-26T16:18:56.799Z,1.65
2022-07-26T16:21:23.400Z,1.60
2022-07-26T16:23:51.032Z,1.92
2022-07-26T16:26:18.321Z,1.98
2022-07-26T16:28:44.899Z,2.83
2022-07-26T16:31:11.547Z,1.42
2022-07-26T16:33:42.924Z,1.90
2022-07-26T16:36:14.198Z,1.50
2022-07-26T16:38:41.011Z,1.95
2022-07-26T16:41:07.684Z,2.10
2022-07-26T16:43:34.855Z,1.83
2022-07-26T16:46:01.852Z,1.98
2022-07-26T16:48:28.510Z,1.48
2022-07-26T16:50:55.195Z,1.52
2022-07-26T16:53:21.694Z,1.75
2022-07-26T16:55:51.388Z,1.60
2022-07-26T16:58:18.794Z,1.63
2022-07-26T17:00:45.754Z,1.80
2022-07-26T17:03:13.494Z,1.92
2022-07-26T17:05:43.664Z,2.10
2022-07-26T17:08:10.596Z,2.88
2022-07-26T17:10:37.188Z,2.08
2022-07-26T17:13:03.703Z,1.73
2022-07-26T17:15:30.199Z,2.50
2022-07-26T17:17:56.697Z,1.90
2022-07-26T17:20:23.258Z,2.30
2022-07-26T17:22:49.909Z,1.85
2022-07-26T17:25:16.484Z,1.80
2022-07-26T17:27:43.018Z,2.20
2022-07-26T17:30:10.169Z,2.15
2022-07-26T17:32:38.008Z,2.30
2022-07-26T17:35:07.236Z,2.90
2022-07-26T17:37:36.687Z,1.92
2022-07-26T17:40:06.603Z,1.85
2022-07-26T17:42:35.631Z,2.10
2022-07-26T17:45:02.260Z,2.00
2022-07-26T17:47:30.368Z,2.90
2022-07-26T17:50:14.132Z,2.22
2022-07-26T17:52:45.965Z,1.65
2022-07-26T17:55:12.476Z,2.03
2022-07-26T17:57:39.033Z,2.20
2022-07-26T18:00:07.226Z,2.65
2022-07-26T18:02:33.797Z,2.92
2022-07-26T18:05:00.380Z,2.17
2022-07-26T18:07:27.139Z,2.63
2022-07-26T18:09:53.644Z,2.30
2022-07-26T18:12:20.408Z,3.22
2022-07-26T18:14:46.889Z,2.58
2022-07-26T18:17:13.376Z,3.08
2022-07-26T18:19:39.894Z,2.28
2022-07-26T18:22:06.534Z,2.10
2022-07-26T18:24:33.232Z,2.58
2022-07-26T18:26:59.892Z,2.45
2022-07-26T18:29:26.406Z,2.33
2022-07-26T18:31:52.976Z,2.67
2022-07-26T18:34:19.501Z,1.90
2022-07-26T18:36:46.473Z,2.28
2022-07-26T18:39:13.540Z,2.40
2022-07-26T18:41:40.305Z,2.38
2022-07-26T18:44:09.134Z,2.10
2022-07-26T18:46:39.566Z,3.10
2022-07-26T18:49:15.792Z,3.17
2022-07-26T18:51:48.822Z,2.38
2022-07-26T18:54:16.139Z,2.35
2022-07-26T18:56:42.888Z,2.47
2022-07-26T18:59:10.464Z,2.50
2022-07-26T19:01:40.201Z,2.38
2022-07-26T19:04:07.900Z,2.70
2022-07-26T19:06:36.624Z,2.45
2022-07-26T19:09:05.152Z,2.55
2022-07-26T19:11:38.333Z,3.08
2022-07-26T19:14:07.655Z,2.00
2022-07-26T19:16:36.600Z,3.17
2022-07-26T19:19:05.071Z,2.15
2022-07-26T19:21:34.731Z,2.60
2022-07-26T19:24:14.070Z,2.33
2022-07-26T19:26:45.205Z,2.25
2022-07-26T19:29:17.599Z,2.33
2022-07-26T19:31:52.005Z,3.15
2022-07-26T19:34:37.124Z,2.50
2022-07-26T19:37:04.915Z,2.35
2022-07-26T19:39:31.573Z,2.30
2022-07-26T19:41:58.357Z,2.30
2022-07-26T19:44:24.845Z,2.35
2022-07-26T19:46:57.231Z,1.95
2022-07-26T19:49:24.457Z,2.17
2022-07-26T19:51:51.832Z,2.00
2022-07-26T19:54:18.666Z,3.17
2022-07-26T19:56:49.564Z,2.50
2022-07-26T19:59:22.643Z,2.38
2022-07-26T20:01:52.130Z,2.17
2022-07-26T20:04:19.771Z,1.85
2022-07-26T20:06:46.311Z,2.03
2022-07-26T20:09:15.255Z,1.85
2022-07-26T20:11:42.779Z,2.72
2022-07-26T20:14:09.268Z,1.98
2022-07-26T20:16:35.888Z,1.60
2022-07-26T20:19:02.397Z,2.13
2022-07-26T20:21:29.082Z,1.98
2022-07-26T20:23:55.651Z,2.10
2022-07-26T20:26:22.959Z,2.03
2022-07-26T20:28:50.652Z,2.17
2022-07-26T20:31:17.278Z,1.95
2022-07-26T20:33:43.936Z,2.05
2022-07-26T20:36:10.648Z,1.75
2022-07-26T20:38:38.295Z,1.70
2022-07-26T20:41:05.854Z,2.08
2022-07-26T20:46:01.513Z,1.52
2022-07-26T20:48:28.188Z,1.80
2022-07-26T20:50:54.666Z,2.70
2022-07-26T20:53:21.233Z,1.75
2022-07-26T20:55:47.802Z,1.73
2022-07-26T20:58:14.428Z,2.20
2022-07-26T21:00:42.314Z,1.73
2022-07-26T21:03:08.860Z,1.67
2022-07-26T21:05:35.483Z,2.10
2022-07-26T21:08:02.023Z,1.90
2022-07-26T21:10:29.301Z,1.92
2022-07-26T21:12:57.517Z,2.00
2022-07-26T21:15:24.193Z,1.80
2022-07-26T21:17:52.629Z,2.20
2022-07-26T21:20:19.636Z,1.88
2022-07-26T21:22:46.152Z,1.73
2022-07-26T21:25:12.617Z,1.83
2022-07-26T21:27:39.316Z,1.98
2022-07-26T21:30:06.791Z,1.70
2022-07-26T21:32:33.324Z,1.60
2022-07-26T21:34:59.891Z,1.45
2022-07-26T21:37:26.627Z,2.10
2022-07-26T21:39:53.147Z,2.22
2022-07-26T21:42:19.690Z,2.33
2022-07-26T21:44:46.192Z,1.50
2022-07-26T21:47:12.694Z,1.85
2022-07-26T21:49:39.238Z,1.50
2022-07-26T21:52:06.155Z,1.33
2022-07-26T21:54:32.735Z,1.60
2022-07-26T21:56:59.222Z,2.40
2022-07-26T21:59:25.819Z,1.73
2022-07-26T22:01:52.344Z,1.80
2022-07-26T22:04:18.896Z,1.98
2022-07-26T22:06:45.416Z,1.40
2022-07-26T22:09:12.313Z,1.55
2022-07-26T22:11:39.060Z,1.75
2022-07-26T22:14:08.319Z,1.63
2022-07-26T22:16:35.140Z,1.50
2022-07-26T22:19:02.271Z,1.48
2022-07-26T22:21:29.172Z,1.67
2022-07-26T22:23:55.730Z,1.65
2022-07-26T22:26:26.148Z,2.22
2022-07-26T22:28:52.731Z,1.38
2022-07-26T22:31:19.230Z,1.83
2022-07-26T22:33:45.736Z,1.42
2022-07-26T22:36:12.262Z,1.52
2022-07-26T22:38:38.771Z,1.42
2022-07-26T22:41:05.306Z,1.95
2022-07-26T22:43:31.859Z,1.58
2022-07-26T22:45:58.349Z,1.90
2022-07-26T22:48:25.091Z,1.27
2022-07-26T22:50:51.595Z,2.60
2022-07-26T22:53:18.121Z,1.60
2022-07-26T22:55:44.609Z,1.48
2022-07-26T22:58:11.315Z,2.28
2022-07-26T23:00:37.964Z,1.60
2022-07-26T23:03:04.805Z,2.20
2022-07-26T23:05:45.866Z,1.40
2022-07-26T23:08:36.566Z,1.55
2022-07-26T23:10:59.846Z,1.30
2022-07-26T23:13:26.453Z,2.28
2022-07-26T23:15:56.833Z,1.75
2022-07-26T23:18:26.774Z,1.70
2022-07-26T23:20:53.244Z,1.63
2022-07-26T23:23:19.753Z,1.65
2022-07-26T23:25:46.246Z,1.55
2022-07-26T23:28:37.353Z,1.50
2022-07-26T23:31:00.726Z,1.63
2022-07-26T23:33:52.813Z,1.50
2022-07-26T23:36:13.853Z,1.80
2022-07-26T23:38:40.375Z,1.63
2022-07-26T23:41:06.863Z,1.52
2022-07-26T23:43:33.416Z,1.40
2022-07-26T23:45:59.920Z,1.50
2022-07-26T23:48:26.420Z,1.45
2022-07-26T23:50:52.924Z,1.20
2022-07-26T23:53:19.428Z,2.03
2022-07-26T23:55:53.332Z,1.50
2022-07-26T23:58:19.865Z,1.75
